Navios Pollux — 3FPO2 — position and weather

sailwx.info

Track history (hours):
 
Tides and Currents Weather Stations Pressure Air Temp Water Temp Dewpoint Dewpoint Depression Visibility Wind Speed Wind Dir Waves Ship Positions

Navios Pollux

Last reported at 2015-Jul-04 17:33 UTC. Time now 2015-Jul-04 20:41 UTC.
Position N 37°15' E 005°04'.

Length 292 m; draft 17.3 m.

Type: Cargo ship. MMSI: 370290000.

Date/timePositionNaut miles runAvg speedWind from/ knotsBaromVisibWave heightAir tempDewpointWater temp
2015-Jul-04 17:33N 37°15' E 005°04'2612.5
2015-Jul-04 15:28N 37°11' E 004°32'1112.1
2015-Jul-04 14:33N 37°09' E 004°18'1311.8
2015-Jul-04 13:28N 37°07' E 004°02'1612.2
2015-Jul-04 12:07N 37°04' E 003°42'712.6
2015-Jul-04 11:33N 37°03' E 003°33'1312.9
2015-Jul-04 10:33N 37°01' E 003°17'1313.4
2015-Jul-04 09:33N 36°59' E 003°00'1313.4
2015-Jul-04 08:33N 36°57' E 002°44'1313.4
2015-Jul-04 07:33N 36°54' E 002°27'1413.4
2015-Jul-04 06:32N 36°52' E 002°10'1313.4
2015-Jul-04 05:33N 36°50' E 001°54'1313.5
2015-Jul-04 04:33N 36°48' E 001°38'1313.1
2015-Jul-04 03:33N 36°46' E 001°22'1312.7
2015-Jul-04 02:33N 36°44' E 001°06'1312.7
2015-Jul-04 01:33N 36°42' E 000°50'1312.6
2015-Jul-04 00:33N 36°40' E 000°35'1312.9
2015-Jul-03 23:33N 36°38' E 000°19'1312.8
2015-Jul-03 22:33N 36°35' E 000°03'1312.8
2015-Jul-03 21:33N 36°33' W 000°12'1312.7
2015-Jul-03 20:33N 36°31' W 000°28'1312.9
2015-Jul-03 19:33N 36°29' W 000°44'1312.5
2015-Jul-03 18:30N 36°27' W 001°00'1212.3
2015-Jul-03 17:33N 36°25' W 001°14'1212.1
2015-Jul-03 16:31N 36°23' W 001°30'2412.2
2015-Jul-03 14:32N 36°19' W 001°59'2512.1
2015-Jul-03 12:29N 36°15' W 002°30'11813.1
2015-Jul-03 03:27N 36°01' W 004°55'1213.8
2015-Jul-03 02:33N 35°60' W 005°10'1414.0
2015-Jul-03 01:34N 35°57' W 005°27'1411.2
2015-Jul-03 00:18N 35°55' W 005°44'1011.2
2015-Jul-02 23:23N 35°54' W 005°57'6012.3
2015-Jul-02 18:33N 35°53' W 007°11'1812.8
2015-Jul-02 17:06N 35°52' W 007°34'5612.4
2015-Jul-02 12:33N 35°51' W 008°43'  
2015-Jun-29 12:22N 34°06' W 026°48'1413.1
2015-Jun-29 11:20N 34°03' W 027°04'  
Track history (hours):
 
Tides and Currents Weather Stations Pressure Air Temp Water Temp Dewpoint Dewpoint Depression Visibility Wind Speed Wind Dir Waves Ship Positions

Navios Pollux

Last reported at 2015-Jul-04 17:33 UTC. Time now 2015-Jul-04 20:41 UTC.
Position N 37°15' E 005°04'.

Length 292 m; draft 17.3 m.

Type: Cargo ship. MMSI: 370290000.

Date/timePositionNaut miles runAvg speedWind from/ knotsBaromVisibWave heightAir tempDewpointWater temp
2015-Jul-04 17:33N 37°15' E 005°04'2612.5
2015-Jul-04 15:28N 37°11' E 004°32'1112.1
2015-Jul-04 14:33N 37°09' E 004°18'1311.8
2015-Jul-04 13:28N 37°07' E 004°02'1612.2
2015-Jul-04 12:07N 37°04' E 003°42'712.6
2015-Jul-04 11:33N 37°03' E 003°33'1312.9
2015-Jul-04 10:33N 37°01' E 003°17'1313.4
2015-Jul-04 09:33N 36°59' E 003°00'1313.4
2015-Jul-04 08:33N 36°57' E 002°44'1313.4
2015-Jul-04 07:33N 36°54' E 002°27'1413.4
2015-Jul-04 06:32N 36°52' E 002°10'1313.4
2015-Jul-04 05:33N 36°50' E 001°54'1313.5
2015-Jul-04 04:33N 36°48' E 001°38'1313.1
2015-Jul-04 03:33N 36°46' E 001°22'1312.7
2015-Jul-04 02:33N 36°44' E 001°06'1312.7
2015-Jul-04 01:33N 36°42' E 000°50'1312.6
2015-Jul-04 00:33N 36°40' E 000°35'1312.9
2015-Jul-03 23:33N 36°38' E 000°19'1312.8
2015-Jul-03 22:33N 36°35' E 000°03'1312.8
2015-Jul-03 21:33N 36°33' W 000°12'1312.7
2015-Jul-03 20:33N 36°31' W 000°28'1312.9
2015-Jul-03 19:33N 36°29' W 000°44'1312.5
2015-Jul-03 18:30N 36°27' W 001°00'1212.3
2015-Jul-03 17:33N 36°25' W 001°14'1212.1
2015-Jul-03 16:31N 36°23' W 001°30'2412.2
2015-Jul-03 14:32N 36°19' W 001°59'2512.1
2015-Jul-03 12:29N 36°15' W 002°30'11813.1
2015-Jul-03 03:27N 36°01' W 004°55'1213.8
2015-Jul-03 02:33N 35°60' W 005°10'1414.0
2015-Jul-03 01:34N 35°57' W 005°27'1411.2
2015-Jul-03 00:18N 35°55' W 005°44'1011.2
2015-Jul-02 23:23N 35°54' W 005°57'6012.3
2015-Jul-02 18:33N 35°53' W 007°11'1812.8
2015-Jul-02 17:06N 35°52' W 007°34'5612.4
2015-Jul-02 12:33N 35°51' W 008°43'  
2015-Jun-29 12:22N 34°06' W 026°48'1413.1
2015-Jun-29 11:20N 34°03' W 027°04'  

Dump ship's entire track history